Time;durP1;ratioP1;P1;durP2;ratioP2;P2;SDS_P1;SDS_P2;PMS_P1;PMS_P2;Temp;Humidity;BMP_temperature;BMP_pressure;BME280_temperature;BME280_humidity;BME280_pressure;Samples;Min_cycle;Max_cycle;Signal;HPM_P1;HPM_P2
2021/12/26 00:00:59;;;;;;;6.77;4.73;;;;;;;-4.72;73.12;99363.03;1692376;84;20993;-71
2021/12/26 00:03:27;;;;;;;5.43;4.60;;;;;;;-4.67;73.13;99376.49;1660345;85;21040;-69
2021/12/26 00:05:56;;;;;;;7.47;5.63;;;;;;;-4.60;73.06;99384.03;1676192;85;21140;-72
2021/12/26 00:08:24;;;;;;;10.33;6.07;;;;;;;-4.58;72.89;99376.84;1676113;85;21060;-70
2021/12/26 00:10:52;;;;;;;10.67;5.83;;;;;;;-4.54;72.93;99380.29;1697537;83;21024;-70
2021/12/26 00:13:21;;;;;;;6.93;4.80;;;;;;;-4.50;72.83;99381.60;1683844;85;21063;-75
2021/12/26 00:15:47;;;;;;;5.83;4.77;;;;;;;-4.51;72.64;99381.78;1677784;85;21620;-76
2021/12/26 00:18:14;;;;;;;6.53;5.40;;;;;;;-4.57;72.70;99371.44;1681977;85;21016;-69
2021/12/26 00:20:40;;;;;;;11.83;5.60;;;;;;;-4.59;72.77;99373.39;1720392;82;20985;-69
2021/12/26 00:23:07;;;;;;;7.73;4.47;;;;;;;-4.61;72.71;99374.06;1748719;81;22032;-70
2021/12/26 00:25:34;;;;;;;8.47;5.57;;;;;;;-4.63;72.74;99386.98;1737561;82;21580;-69
2021/12/26 00:28:01;;;;;;;8.00;5.77;;;;;;;-4.68;72.81;99381.41;1749093;81;22203;-73
2021/12/26 00:30:28;;;;;;;11.50;6.90;;;;;;;-4.71;72.84;99390.91;1748742;81;21116;-71
2021/12/26 00:32:56;;;;;;;9.33;6.10;;;;;;;-4.73;72.89;99387.12;1749456;82;21533;-72
2021/12/26 00:35:23;;;;;;;11.00;6.03;;;;;;;-4.78;72.93;99380.23;1748365;81;21139;-72
2021/12/26 00:37:51;;;;;;;8.47;5.93;;;;;;;-4.82;73.04;99381.53;1748721;82;20936;-78
2021/12/26 00:40:20;;;;;;;11.00;6.37;;;;;;;-4.90;73.18;99384.14;1748456;81;20952;-69
2021/12/26 00:42:46;;;;;;;10.77;6.70;;;;;;;-4.98;73.40;99385.40;1706632;83;21067;-71
2021/12/26 00:45:13;;;;;;;7.47;5.73;;;;;;;-5.07;73.66;99379.80;1740468;82;21126;-70
2021/12/26 00:47:41;;;;;;;9.77;6.63;;;;;;;-5.14;73.89;99385.35;1748857;81;21257;-73
2021/12/26 00:50:11;;;;;;;12.23;6.50;;;;;;;-5.20;74.14;99387.28;1739760;82;21604;-70
2021/12/26 00:52:37;;;;;;;9.27;7.67;;;;;;;-5.24;74.35;99386.78;1695931;82;21147;-71
2021/12/26 00:55:06;;;;;;;7.97;5.60;;;;;;;-5.27;74.47;99386.28;1695047;83;21010;-70
2021/12/26 00:57:33;;;;;;;10.70;6.33;;;;;;;-5.27;74.62;99385.77;1660254;84;20997;-72
2021/12/26 00:59:59;;;;;;;11.83;7.20;;;;;;;-5.32;74.79;99391.48;1697743;83;22261;-77
2021/12/26 01:02:26;;;;;;;11.33;7.37;;;;;;;-5.34;74.87;99382.97;1738247;82;21051;-71
2021/12/26 01:04:52;;;;;;;13.60;7.20;;;;;;;-5.37;75.01;99384.57;1724468;83;21053;-74
2021/12/26 01:09:57;;;;;;;11.13;6.47;;;;;;;-5.45;75.24;99388.47;1748645;82;21070;-70
2021/12/26 01:12:24;;;;;;;9.17;6.70;;;;;;;-5.49;75.41;99373.22;1738803;82;21117;-72
2021/12/26 01:14:58;;;;;;;16.83;7.20;;;;;;;-5.47;75.47;99380.44;1749047;81;21520;-72
2021/12/26 01:17:36;;;;;;;12.40;6.37;;;;;;;-5.48;75.59;99369.63;1736564;82;21008;-72
2021/12/26 01:20:26;;;;;;;10.23;5.50;;;;;;;-5.52;75.66;99377.46;1717960;81;21076;-75
2021/12/26 01:22:47;;;;;;;8.60;5.13;;;;;;;-5.54;75.82;99374.16;1733316;81;21044;-78
2021/12/26 01:25:15;;;;;;;8.80;5.90;;;;;;;-5.54;75.93;99379.41;1744900;81;21053;-78
2021/12/26 01:27:43;;;;;;;9.10;5.53;;;;;;;-5.55;76.03;99382.99;1755244;80;20943;-80
2021/12/26 01:30:12;;;;;;;9.80;6.73;;;;;;;-5.53;76.08;99378.44;1755339;81;21038;-77
2021/12/26 01:32:42;;;;;;;9.10;5.90;;;;;;;-5.51;76.14;99383.02;1704280;83;21084;-81
2021/12/26 01:35:28;;;;;;;9.10;4.83;;;;;;;-5.49;76.11;99387.14;1682947;83;20990;-77
2021/12/26 01:38:14;;;;;;;11.60;6.73;;;;;;;-5.47;76.08;99385.69;1728415;81;21017;-79
2021/12/26 01:40:58;;;;;;;9.63;5.30;;;;;;;-5.44;76.07;99377.50;1735983;82;21016;-77
2021/12/26 01:43:46;;;;;;;7.20;5.60;;;;;;;-5.42;75.99;99388.66;1672110;85;21054;-84
2021/12/26 01:46:17;;;;;;;8.53;4.93;;;;;;;-5.39;76.01;99392.27;1736709;80;21071;-79
2021/12/26 01:48:44;;;;;;;6.63;4.57;;;;;;;-5.36;75.90;99403.25;1756060;80;21599;-76
2021/12/26 01:51:10;;;;;;;7.47;5.57;;;;;;;-5.35;75.88;99408.83;1756387;81;21024;-76
2021/12/26 01:53:40;;;;;;;7.53;5.97;;;;;;;-5.38;75.77;99407.84;1757094;80;20941;-76
2021/12/26 01:56:10;;;;;;;12.30;7.43;;;;;;;-5.44;75.82;99401.08;1756887;80;20968;-76
2021/12/26 01:58:37;;;;;;;10.17;6.13;;;;;;;-5.49;75.92;99400.72;1757449;80;21059;-78
2021/12/26 02:01:11;;;;;;;10.70;5.87;;;;;;;-5.52;76.00;99404.97;1756000;80;21510;-75
2021/12/26 02:03:40;;;;;;;9.37;5.97;;;;;;;-5.52;76.10;99397.94;1755958;81;21039;-74
2021/12/26 02:06:08;;;;;;;7.50;5.13;;;;;;;-5.52;76.08;99390.56;1755179;81;21607;-75
2021/12/26 02:08:36;;;;;;;10.67;8.33;;;;;;;-5.56;76.14;99393.95;1745158;81;20995;-75
2021/12/26 02:11:05;;;;;;;7.53;6.23;;;;;;;-5.59;76.24;99391.66;1756386;81;21039;-77
2021/12/26 02:13:33;;;;;;;7.60;5.87;;;;;;;-5.60;76.22;99393.94;1756004;81;21062;-75
2021/12/26 02:16:01;;;;;;;9.30;6.40;;;;;;;-5.61;76.31;99405.38;1751676;81;22030;-88
2021/12/26 02:18:27;;;;;;;8.90;5.27;;;;;;;-5.63;76.32;99405.22;1724243;83;20964;-80
2021/12/26 02:21:16;;;;;;;7.07;5.70;;;;;;;-5.66;76.43;99403.73;1727015;82;21051;-73
2021/12/26 02:28:42;;;;;;;8.43;6.07;;;;;;;-5.64;76.50;99395.71;1750414;81;21761;-80
2021/12/26 02:31:08;;;;;;;6.27;5.23;;;;;;;-5.66;76.49;99401.13;1735356;82;21474;-82
2021/12/26 02:33:36;;;;;;;8.40;5.73;;;;;;;-5.65;76.57;99403.22;1750604;80;20998;-80
2021/12/26 02:36:03;;;;;;;10.47;4.97;;;;;;;-5.61;76.71;99400.14;1721812;82;21065;-81
2021/12/26 02:38:31;;;;;;;11.30;6.27;;;;;;;-5.60;76.61;99407.03;1694712;83;21008;-80
2021/12/26 02:40:59;;;;;;;11.50;6.23;;;;;;;-5.61;76.62;99401.45;1694291;82;21097;-80
2021/12/26 02:43:29;;;;;;;8.83;5.40;;;;;;;-5.61;76.64;99404.59;1705184;82;22063;-85
2021/12/26 02:45:56;;;;;;;11.60;6.07;;;;;;;-5.59;76.69;99409.99;1737693;82;21028;-74
2021/12/26 02:48:23;;;;;;;11.27;6.63;;;;;;;-5.58;76.63;99410.33;1750905;82;21533;-76
2021/12/26 02:50:56;;;;;;;10.23;5.80;;;;;;;-5.56;76.60;99417.53;1730932;82;21044;-75
2021/12/26 02:53:20;;;;;;;8.87;5.67;;;;;;;-5.58;76.57;99416.05;1719104;83;21149;-76
2021/12/26 02:55:49;;;;;;;6.10;4.97;;;;;;;-5.61;76.58;99421.62;1730221;82;21051;-75
2021/12/26 02:58:15;;;;;;;9.13;5.57;;;;;;;-5.65;76.63;99418.45;1750551;82;20986;-73
2021/12/26 03:00:51;;;;;;;11.63;6.13;;;;;;;-5.68;76.73;99414.84;1750536;82;21643;-74
2021/12/26 03:03:18;;;;;;;14.90;6.40;;;;;;;-5.66;76.79;99417.32;1730700;82;21099;-79
2021/12/26 03:05:45;;;;;;;12.50;7.60;;;;;;;-5.65;76.87;99422.39;1725916;82;21370;-86
2021/12/26 03:08:16;;;;;;;11.77;6.93;;;;;;;-5.58;76.89;99427.84;1736812;82;21014;-83
2021/12/26 03:10:43;;;;;;;10.00;6.63;;;;;;;-5.54;76.71;99431.80;1749847;80;21016;-79
2021/12/26 03:13:12;;;;;;;10.60;7.10;;;;;;;-5.55;76.71;99434.90;1705376;82;21131;-74
2021/12/26 03:15:38;;;;;;;7.30;5.40;;;;;;;-5.52;76.74;99430.69;1729981;82;21055;-81
2021/12/26 03:18:06;;;;;;;10.50;5.83;;;;;;;-5.48;76.65;99433.81;1727366;82;21544;-81
2021/12/26 03:20:38;;;;;;;15.53;8.07;;;;;;;-5.45;76.58;99442.17;1721554;82;21045;-82
2021/12/26 03:23:05;;;;;;;14.20;6.77;;;;;;;-5.45;76.44;99440.87;1690076;83;21013;-81
2021/12/26 03:25:32;;;;;;;11.40;6.67;;;;;;;-5.46;76.50;99442.31;1710718;83;21057;-80
2021/12/26 03:28:00;;;;;;;15.97;7.60;;;;;;;-5.46;76.52;99437.08;1690252;83;21093;-83
2021/12/26 03:30:30;;;;;;;16.63;7.93;;;;;;;-5.45;76.49;99447.41;1710548;83;21193;-78
2021/12/26 03:32:59;;;;;;;13.67;8.07;;;;;;;-5.46;76.44;99443.14;1690262;83;21052;-80
2021/12/26 03:35:26;;;;;;;10.80;8.20;;;;;;;-5.51;76.43;99444.09;1711071;83;21045;-86
2021/12/26 03:37:53;;;;;;;15.90;7.70;;;;;;;-5.54;76.46;99448.34;1684599;85;21091;-82
2021/12/26 03:40:39;;;;;;;11.27;8.40;;;;;;;-5.58;76.50;99443.56;1714379;83;20971;-80
2021/12/26 03:43:06;;;;;;;15.57;7.73;;;;;;;-5.60;76.71;99452.87;1706143;84;21534;-79
2021/12/26 03:45:34;;;;;;;11.13;6.43;;;;;;;-5.61;76.68;99448.60;1714237;83;20920;-88
2021/12/26 03:48:00;;;;;;;16.03;9.13;;;;;;;-5.63;76.77;99448.44;1689440;84;21583;-84
2021/12/26 03:50:28;;;;;;;11.67;7.87;;;;;;;-5.65;76.80;99445.95;1705789;83;21054;-85
2021/12/26 03:52:58;;;;;;;12.33;8.53;;;;;;;-5.61;76.96;99450.42;1714564;83;21098;-83
2021/12/26 03:55:29;;;;;;;12.87;8.03;;;;;;;-5.56;76.93;99441.62;1687436;84;21111;-82
2021/12/26 03:57:54;;;;;;;18.13;8.83;;;;;;;-5.53;76.77;99447.85;1665034;84;20913;-81
2021/12/26 04:00:22;;;;;;;13.90;7.37;;;;;;;-5.48;76.75;99442.98;1705792;84;21068;-79
2021/12/26 04:02:49;;;;;;;14.63;8.50;;;;;;;-5.45;76.62;99443.48;1710748;83;21097;-81
2021/12/26 04:05:18;;;;;;;16.43;8.33;;;;;;;-5.45;76.52;99447.41;1690641;83;21068;-79
2021/12/26 04:07:45;;;;;;;17.90;10.60;;;;;;;-5.46;76.47;99449.70;1690161;83;21276;-78
2021/12/26 04:10:12;;;;;;;13.33;7.20;;;;;;;-5.50;76.41;99450.98;1714947;82;20984;-77
2021/12/26 04:12:45;;;;;;;14.63;7.97;;;;;;;-5.48;76.47;99450.84;1687561;84;21108;-81
2021/12/26 04:15:11;;;;;;;16.73;8.70;;;;;;;-5.51;76.31;99452.44;1693406;83;21518;-84
2021/12/26 04:17:38;;;;;;;9.40;6.80;;;;;;;-5.60;76.33;99455.98;1691404;83;21032;-81
2021/12/26 04:20:07;;;;;;;12.23;7.27;;;;;;;-5.65;76.46;99448.58;1670424;79;21175;-82
2021/12/26 04:22:33;;;;;;;15.20;7.47;;;;;;;-5.71;76.46;99453.94;1727289;82;21553;-82
2021/12/26 04:25:00;;;;;;;12.67;7.37;;;;;;;-5.79;76.61;99455.67;1750514;81;21062;-81
2021/12/26 04:27:26;;;;;;;11.83;8.43;;;;;;;-5.89;76.76;99454.48;1745499;82;21070;-77
2021/12/26 04:29:53;;;;;;;9.20;6.57;;;;;;;-5.95;76.97;99473.43;1719284;82;21484;-77
2021/12/26 04:32:20;;;;;;;15.33;8.53;;;;;;;-6.01;77.13;99468.78;1750409;81;21058;-76
2021/12/26 04:34:46;;;;;;;13.63;7.50;;;;;;;-6.00;77.44;99464.38;1750578;81;20988;-80
2021/12/26 04:37:13;;;;;;;10.27;6.70;;;;;;;-5.95;77.53;99465.58;1738184;81;20945;-75
2021/12/26 04:39:40;;;;;;;9.87;6.60;;;;;;;-5.93;77.53;99468.84;1750588;81;21025;-76
2021/12/26 04:42:08;;;;;;;14.57;8.47;;;;;;;-5.95;77.53;99462.13;1728459;82;20954;-78
2021/12/26 04:44:39;;;;;;;9.38;6.92;;;;;;;-5.98;77.60;99467.65;1699577;83;23852;-78
2021/12/26 04:47:24;;;;;;;11.57;7.80;;;;;;;-5.97;77.68;99470.61;1751593;82;21018;-77
2021/12/26 04:49:50;;;;;;;11.20;8.03;;;;;;;-5.95;77.78;99460.82;1750820;82;20997;-77
2021/12/26 04:52:19;;;;;;;12.47;8.67;;;;;;;-5.90;77.74;99470.36;1750102;81;20992;-77
2021/12/26 04:54:46;;;;;;;13.50;8.13;;;;;;;-5.88;77.66;99474.45;1750704;82;21013;-77
2021/12/26 04:57:13;;;;;;;11.50;7.70;;;;;;;-5.85;77.71;99481.17;1750670;82;22236;-76
2021/12/26 04:59:41;;;;;;;12.67;8.37;;;;;;;-5.84;77.64;99473.14;1749755;82;22181;-78
2021/12/26 05:02:08;;;;;;;9.70;7.43;;;;;;;-5.83;77.60;99475.28;1726893;82;21322;-78
2021/12/26 05:04:36;;;;;;;11.80;7.70;;;;;;;-5.85;77.50;99470.19;1730898;82;21060;-77
2021/12/26 05:07:03;;;;;;;12.53;7.03;;;;;;;-5.88;77.52;99486.23;1726799;82;21016;-76
2021/12/26 05:09:32;;;;;;;9.77;7.07;;;;;;;-5.92;77.50;99484.07;1736604;82;21633;-77
2021/12/26 05:12:01;;;;;;;13.53;7.03;;;;;;;-5.92;77.69;99490.13;1742179;82;21682;-78
2021/12/26 05:14:30;;;;;;;14.03;8.83;;;;;;;-5.87;77.72;99491.81;1706995;82;21060;-77
2021/12/26 05:17:10;;;;;;;15.67;9.87;;;;;;;-5.85;77.69;99495.06;1737355;82;21098;-79
2021/12/26 05:19:37;;;;;;;16.60;9.80;;;;;;;-5.86;77.66;99493.92;1733383;82;21067;-77
2021/12/26 05:22:05;;;;;;;19.30;11.97;;;;;;;-5.81;77.60;99495.12;1735340;81;21508;-82
2021/12/26 05:24:35;;;;;;;19.87;10.47;;;;;;;-5.76;77.61;99496.80;1719490;82;21557;-81
2021/12/26 05:27:02;;;;;;;18.73;10.97;;;;;;;-5.70;77.57;99504.52;1735132;82;21022;-81
2021/12/26 05:29:30;;;;;;;16.70;11.03;;;;;;;-5.62;77.49;99501.16;1710731;82;21556;-81
2021/12/26 05:31:56;;;;;;;21.13;10.00;;;;;;;-5.61;77.09;99504.13;1745740;81;21524;-82
2021/12/26 05:34:25;;;;;;;20.43;12.87;;;;;;;-5.62;77.00;99502.47;1708139;83;21626;-82
2021/12/26 05:36:52;;;;;;;21.53;10.93;;;;;;;-5.64;76.97;99500.48;1658432;85;21080;-85
2021/12/26 05:39:20;;;;;;;19.77;11.60;;;;;;;-5.62;77.06;99505.09;1660464;85;21075;-81
2021/12/26 05:41:48;;;;;;;21.97;12.10;;;;;;;-5.57;76.92;99508.91;1682024;84;21103;-81
2021/12/26 05:44:16;;;;;;;19.63;11.83;;;;;;;-5.57;76.66;99501.53;1676528;84;21039;-82
2021/12/26 05:46:43;;;;;;;22.00;11.17;;;;;;;-5.62;76.58;99512.95;1686260;84;21517;-84
2021/12/26 05:49:11;;;;;;;19.57;11.77;;;;;;;-5.68;76.63;99516.98;1706296;84;20991;-84
2021/12/26 05:51:42;;;;;;;21.03;12.27;;;;;;;-5.71;76.73;99515.98;1709481;82;21011;-80
2021/12/26 05:54:13;;;;;;;22.17;12.00;;;;;;;-5.68;76.88;99516.98;1674977;85;21043;-83
2021/12/26 05:56:41;;;;;;;18.70;10.37;;;;;;;-5.72;76.69;99520.89;1706466;84;21056;-81
2021/12/26 05:59:09;;;;;;;17.80;11.30;;;;;;;-5.75;76.73;99529.02;1686189;84;21148;-80
2021/12/26 06:01:36;;;;;;;20.17;12.13;;;;;;;-5.79;76.68;99519.34;1654937;84;21075;-82
2021/12/26 06:04:04;;;;;;;20.50;11.63;;;;;;;-5.84;76.69;99512.91;1690663;84;21003;-82
2021/12/26 06:06:31;;;;;;;17.33;8.67;;;;;;;-5.86;76.87;99519.63;1676583;85;21073;-81
2021/12/26 06:09:00;;;;;;;14.73;9.53;;;;;;;-5.87;76.89;99528.47;1657337;85;21061;-84
2021/12/26 06:11:26;;;;;;;17.60;9.87;;;;;;;-5.92;76.90;99533.33;1668306;85;21485;-83
2021/12/26 06:13:54;;;;;;;20.17;10.90;;;;;;;-5.99;76.96;99537.50;1686112;84;21077;-77
2021/12/26 06:16:20;;;;;;;20.40;10.80;;;;;;;-6.04;77.08;99538.94;1708619;84;20992;-78
2021/12/26 06:18:47;;;;;;;22.73;10.63;;;;;;;-6.10;77.11;99542.97;1706319;84;21088;-77
2021/12/26 06:21:34;;;;;;;18.27;10.27;;;;;;;-6.19;77.34;99542.55;1719973;80;20991;-78
2021/12/26 06:24:13;;;;;;;20.57;11.33;;;;;;;-6.25;77.48;99534.79;1686841;85;21053;-85
2021/12/26 06:26:46;;;;;;;21.50;12.57;;;;;;;-6.28;77.71;99540.78;1736135;82;21044;-84
2021/12/26 06:29:16;;;;;;;16.00;9.83;;;;;;;-6.32;77.86;99541.56;1738481;82;21060;-84
2021/12/26 06:32:01;;;;;;;16.57;9.40;;;;;;;-6.32;78.15;99539.42;1747604;81;21059;-84
2021/12/26 06:34:39;;;;;;;16.87;9.43;;;;;;;-6.33;78.33;99546.96;1714541;82;21591;-84
2021/12/26 06:37:25;;;;;;;18.30;10.23;;;;;;;-6.32;78.43;99542.05;1740919;82;22369;-79
2021/12/26 06:40:12;;;;;;;18.00;11.23;;;;;;;-6.35;78.42;99545.79;1736370;82;21031;-79
2021/12/26 06:42:57;;;;;;;13.60;8.97;;;;;;;-6.36;78.66;99544.62;1738922;82;21528;-79
2021/12/26 06:45:45;;;;;;;24.00;11.97;;;;;;;-6.32;78.84;99552.51;1724716;83;20997;-80
2021/12/26 06:48:30;;;;;;;24.87;12.40;;;;;;;-6.33;78.80;99555.61;1738185;82;21150;-80
2021/12/26 06:50:58;;;;;;;18.40;14.03;;;;;;;-6.21;79.00;99559.69;1720053;82;21621;-80
2021/12/26 06:53:26;;;;;;;19.40;12.93;;;;;;;-6.11;78.88;99555.70;1724390;83;20968;-78
2021/12/26 06:55:53;;;;;;;38.13;13.63;;;;;;;-6.03;78.77;99554.95;1733544;82;21051;-81
2021/12/26 06:58:21;;;;;;;22.17;13.27;;;;;;;-5.99;78.61;99553.69;1680898;83;20945;-84
2021/12/26 07:00:49;;;;;;;28.93;14.90;;;;;;;-5.99;78.67;99555.00;1733505;82;21517;-80
2021/12/26 07:03:16;;;;;;;25.33;13.57;;;;;;;-5.92;78.72;99554.27;1671384;84;21739;-78
2021/12/26 07:05:44;;;;;;;16.43;10.80;;;;;;;-5.81;78.77;99547.48;1707533;84;21023;-77
2021/12/26 07:08:12;;;;;;;16.97;12.03;;;;;;;-5.71;78.51;99556.59;1717675;82;21609;-78
2021/12/26 07:10:40;;;;;;;23.87;13.93;;;;;;;-5.68;78.19;99563.30;1727455;82;21043;-80
2021/12/26 07:13:08;;;;;;;20.93;13.23;;;;;;;-5.72;78.05;99561.00;1724652;83;21067;-81
2021/12/26 07:15:37;;;;;;;17.97;11.53;;;;;;;-5.72;77.95;99547.08;1734017;82;21356;-83
2021/12/26 07:18:03;;;;;;;19.93;10.47;;;;;;;-5.72;77.89;99545.77;1698553;83;21067;-82
2021/12/26 07:20:34;;;;;;;23.40;12.20;;;;;;;-5.72;77.80;99549.21;1712496;83;21604;-83
2021/12/26 07:23:19;;;;;;;20.60;13.60;;;;;;;-5.75;77.77;99548.66;1722175;82;21001;-85
2021/12/26 07:25:48;;;;;;;22.87;12.97;;;;;;;-5.79;77.79;99558.63;1724593;83;21056;-83
2021/12/26 07:28:19;;;;;;;22.30;12.23;;;;;;;-5.78;77.93;99556.83;1719364;82;21087;-82
2021/12/26 07:30:58;;;;;;;21.23;13.60;;;;;;;-5.75;77.92;99563.06;1730482;82;21023;-81
2021/12/26 07:33:24;;;;;;;24.90;13.13;;;;;;;-5.74;77.91;99551.14;1668520;84;20996;-87
2021/12/26 07:35:59;;;;;;;24.73;12.90;;;;;;;-5.67;77.92;99559.23;1718185;82;21569;-86
2021/12/26 07:38:37;;;;;;;25.57;15.57;;;;;;;-5.62;77.77;99558.78;1722903;82;20972;-87
2021/12/26 07:41:07;;;;;;;19.00;11.00;;;;;;;-5.64;77.72;99554.17;1723232;81;21828;-78
2021/12/26 07:43:35;;;;;;;22.60;12.53;;;;;;;-5.59;77.72;99561.92;1724758;83;20948;-78
2021/12/26 07:46:20;;;;;;;22.10;11.73;;;;;;;-5.58;77.60;99566.67;1724694;83;21083;-80
2021/12/26 07:48:49;;;;;;;22.60;14.20;;;;;;;-5.56;77.56;99560.81;1704500;83;21061;-79
2021/12/26 07:51:37;;;;;;;22.87;15.00;;;;;;;-5.55;77.57;99559.33;1724493;83;21050;-85
2021/12/26 07:54:25;;;;;;;29.83;14.30;;;;;;;-5.54;77.46;99558.36;1710991;83;21027;-80
2021/12/26 07:57:11;;;;;;;19.70;11.93;;;;;;;-5.54;77.58;99570.16;1735200;82;21510;-79
2021/12/26 07:59:58;;;;;;;26.93;12.67;;;;;;;-5.53;77.64;99573.59;1721917;82;20996;-81
2021/12/26 08:02:46;;;;;;;24.43;14.63;;;;;;;-5.51;77.78;99566.39;1738642;82;20893;-81
2021/12/26 08:05:34;;;;;;;27.93;12.17;;;;;;;-5.49;77.83;99569.22;1719408;82;21116;-81
2021/12/26 08:08:06;;;;;;;29.63;18.73;;;;;;;-5.41;77.94;99572.38;1723777;83;21182;-83
2021/12/26 08:10:35;;;;;;;25.03;11.63;;;;;;;-5.38;77.85;99565.55;1736231;82;21070;-79
2021/12/26 08:13:02;;;;;;;21.93;12.43;;;;;;;-5.35;77.86;99567.85;1719487;82;21028;-79
2021/12/26 08:15:30;;;;;;;25.43;14.30;;;;;;;-5.30;77.96;99566.43;1711848;82;21106;-81
2021/12/26 08:17:56;;;;;;;23.27;13.27;;;;;;;-5.22;77.91;99559.11;1740401;81;21485;-84
2021/12/26 08:20:25;;;;;;;20.73;12.13;;;;;;;-5.17;77.92;99561.27;1709421;82;21055;-86
2021/12/26 08:22:58;;;;;;;20.82;13.20;;;;;;;-5.03;78.00;99550.22;1713592;83;21580;-82
2021/12/26 08:25:24;;;;;;;25.00;14.90;;;;;;;-4.89;77.82;99551.80;1688778;83;21003;-80
2021/12/26 08:27:50;;;;;;;24.90;13.40;;;;;;;-4.78;77.70;99555.96;1681931;83;21030;-79
2021/12/26 08:30:18;;;;;;;28.90;14.83;;;;;;;-4.67;77.47;99548.32;1703803;83;21102;-82
2021/12/26 08:32:49;;;;;;;19.60;11.27;;;;;;;-4.60;77.16;99552.77;1687864;84;21987;-80
2021/12/26 08:35:16;;;;;;;21.40;13.30;;;;;;;-4.53;76.86;99553.81;1717927;83;21022;-85
2021/12/26 08:37:46;;;;;;;24.33;14.83;;;;;;;-4.52;76.69;99557.26;1705994;83;21260;-83
2021/12/26 08:40:14;;;;;;;27.57;14.63;;;;;;;-4.48;76.46;99553.34;1669629;83;20999;-85
2021/12/26 08:42:41;;;;;;;22.83;13.60;;;;;;;-4.45;76.46;99553.01;1709696;83;21557;-80
2021/12/26 08:45:11;;;;;;;18.47;12.47;;;;;;;-4.36;76.38;99544.19;1706099;83;21136;-84
2021/12/26 08:47:38;;;;;;;21.20;14.70;;;;;;;-4.30;76.22;99540.94;1708744;83;21616;-84
2021/12/26 08:50:09;;;;;;;21.10;14.77;;;;;;;-4.19;76.23;99543.77;1671873;83;21535;-83
2021/12/26 08:52:35;;;;;;;17.67;10.70;;;;;;;-4.05;76.06;99536.59;1676842;83;21007;-86
2021/12/26 08:55:01;;;;;;;20.13;10.80;;;;;;;-3.96;75.46;99533.82;1714573;83;21551;-83
2021/12/26 08:57:30;;;;;;;17.00;10.10;;;;;;;-3.94;74.78;99542.86;1694314;83;22430;-83
2021/12/26 08:59:58;;;;;;;16.67;10.23;;;;;;;-3.95;74.64;99529.39;1693161;83;21544;-78
2021/12/26 09:02:25;;;;;;;17.60;9.47;;;;;;;-3.89;74.22;99539.75;1707887;83;21054;-80
2021/12/26 09:04:53;;;;;;;14.93;9.97;;;;;;;-3.86;73.82;99536.79;1650187;84;21007;-79
2021/12/26 09:07:20;;;;;;;12.80;8.67;;;;;;;-3.85;73.41;99528.77;1688657;83;21107;-79
2021/12/26 09:09:50;;;;;;;14.90;9.00;;;;;;;-3.77;73.29;99530.08;1705658;83;21025;-78
2021/12/26 09:12:18;;;;;;;14.33;9.40;;;;;;;-3.70;72.92;99527.14;1714687;83;21611;-80
2021/12/26 09:14:46;;;;;;;21.50;10.73;;;;;;;-3.71;72.06;99525.49;1686782;83;21563;-79
2021/12/26 09:17:14;;;;;;;15.20;9.07;;;;;;;-3.75;72.16;99520.73;1650831;84;21004;-80
2021/12/26 09:19:40;;;;;;;19.20;9.63;;;;;;;-3.68;72.21;99529.09;1709255;83;21361;-77
2021/12/26 09:22:09;;;;;;;11.83;7.73;;;;;;;-3.58;72.02;99525.00;1715629;81;21417;-79
2021/12/26 09:24:35;;;;;;;16.80;9.37;;;;;;;-3.52;71.42;99532.23;1744711;82;20894;-79
2021/12/26 09:27:02;;;;;;;13.10;8.10;;;;;;;-3.49;71.03;99525.81;1749439;81;21004;-82
2021/12/26 09:29:29;;;;;;;12.50;8.33;;;;;;;-3.44;70.76;99530.09;1749180;81;21056;-86
2021/12/26 09:31:57;;;;;;;14.17;9.73;;;;;;;-3.38;70.66;99529.44;1741830;81;20893;-87
2021/12/26 09:34:25;;;;;;;12.17;7.40;;;;;;;-3.31;70.61;99529.92;1740890;82;22391;-93
2021/12/26 09:36:53;;;;;;;13.13;8.33;;;;;;;-3.20;70.34;99527.45;1711378;82;21583;-84
2021/12/26 09:39:20;;;;;;;12.80;9.57;;;;;;;-3.19;69.78;99524.67;1732241;82;21199;-79
2021/12/26 09:41:46;;;;;;;16.20;10.83;;;;;;;-3.16;69.09;99524.33;1739955;82;21016;-77
2021/12/26 09:44:12;;;;;;;12.93;7.77;;;;;;;-3.13;68.89;99512.67;1738801;82;21075;-82
2021/12/26 09:46:39;;;;;;;9.73;6.80;;;;;;;-3.09;68.07;99525.31;1724227;83;21180;-80
2021/12/26 09:49:05;;;;;;;15.97;9.83;;;;;;;-3.05;67.46;99521.85;1700731;83;21037;-76
2021/12/26 09:51:32;;;;;;;14.97;9.03;;;;;;;-3.00;67.48;99511.65;1731437;82;21128;-83
2021/12/26 09:53:58;;;;;;;15.53;9.67;;;;;;;-2.89;67.49;99515.75;1722441;83;21139;-79
2021/12/26 09:56:25;;;;;;;15.20;8.77;;;;;;;-2.81;66.63;99523.13;1702132;83;21045;-75
2021/12/26 09:59:01;;;;;;;20.33;10.03;;;;;;;-2.75;66.51;99507.98;1712473;83;21115;-74
2021/12/26 10:01:35;;;;;;;12.93;8.77;;;;;;;-2.67;66.12;99512.38;1712154;82;21202;-76
2021/12/26 10:04:22;;;;;;;12.93;8.43;;;;;;;-2.65;65.20;99511.23;1699209;83;20996;-82
2021/12/26 10:06:50;;;;;;;14.47;8.80;;;;;;;-2.65;64.76;99498.57;1665525;85;21074;-78
2021/12/26 10:09:18;;;;;;;16.43;6.67;;;;;;;-2.59;64.32;99511.55;1709447;83;21076;-79
2021/12/26 10:11:50;;;;;;;16.27;8.80;;;;;;;-2.65;63.61;99518.31;1718231;82;21016;-81
2021/12/26 10:14:24;;;;;;;22.30;9.23;;;;;;;-2.69;63.54;99515.20;1735145;82;21055;-80
2021/12/26 10:16:59;;;;;;;17.23;8.97;;;;;;;-2.69;63.69;99509.95;1730126;80;20999;-78
2021/12/26 10:19:38;;;;;;;13.60;8.37;;;;;;;-2.64;63.53;99506.28;1724907;82;21067;-83
2021/12/26 10:22:06;;;;;;;11.77;9.57;;;;;;;-2.58;63.24;99524.52;1709999;82;21095;-87
2021/12/26 10:24:38;;;;;;;16.07;9.27;;;;;;;-2.56;62.89;99504.13;1748685;82;21155;-80
2021/12/26 10:27:12;;;;;;;10.30;7.33;;;;;;;-2.54;63.31;99506.60;1726285;82;21043;-82
2021/12/26 10:29:50;;;;;;;14.00;9.07;;;;;;;-2.49;63.20;99510.83;1730889;82;21003;-78
2021/12/26 10:32:31;;;;;;;16.60;9.67;;;;;;;-2.48;63.38;99501.45;1750757;82;21549;-83
2021/12/26 10:35:16;;;;;;;13.47;8.60;;;;;;;-2.45;63.09;99502.94;1738899;82;20930;-79
2021/12/26 10:37:49;;;;;;;14.43;9.17;;;;;;;-2.47;63.24;99503.11;1713007;82;21969;-83
2021/12/26 10:40:22;;;;;;;14.75;10.63;;;;;;;-2.51;63.10;99504.44;1749743;81;21576;-80
2021/12/26 10:42:56;;;;;;;13.70;8.77;;;;;;;-2.54;63.37;99513.98;1730889;82;21027;-78
2021/12/26 10:45:30;;;;;;;16.23;8.30;;;;;;;-2.54;63.32;99520.55;1719511;83;21099;-79
2021/12/26 10:48:00;;;;;;;16.43;9.20;;;;;;;-2.50;63.46;99504.77;1722695;82;21063;-81
2021/12/26 10:50:29;;;;;;;14.67;8.67;;;;;;;-2.45;63.31;99515.61;1725789;82;21167;-79
2021/12/26 10:53:05;;;;;;;13.67;8.57;;;;;;;-2.41;63.20;99501.11;1749287;82;21589;-80
2021/12/26 10:55:47;;;;;;;15.07;9.67;;;;;;;-2.36;62.96;99504.05;1747625;82;20949;-80
2021/12/26 10:58:17;;;;;;;12.67;9.73;;;;;;;-2.32;62.90;99506.66;1719429;82;21596;-86
2021/12/26 11:00:47;;;;;;;12.20;8.77;;;;;;;-2.26;62.66;99509.11;1719780;83;20967;-88
2021/12/26 11:03:23;;;;;;;12.07;8.27;;;;;;;-2.22;62.40;99511.22;1731589;82;21582;-86
2021/12/26 11:05:58;;;;;;;14.90;8.27;;;;;;;-2.15;62.39;99506.06;1707623;82;21040;-87
2021/12/26 11:08:34;;;;;;;13.93;8.23;;;;;;;-2.07;62.19;99509.17;1731887;82;20991;-85
2021/12/26 11:11:18;;;;;;;14.57;7.60;;;;;;;-2.02;61.95;99504.20;1748994;82;21508;-81
2021/12/26 11:13:47;;;;;;;14.80;7.33;;;;;;;-1.93;62.01;99511.89;1722017;82;21030;-76
2021/12/26 11:16:15;;;;;;;12.20;7.90;;;;;;;-1.84;61.45;99505.56;1750615;82;21948;-79
2021/12/26 11:18:41;;;;;;;15.07;8.30;;;;;;;-1.80;61.20;99503.39;1750747;82;21036;-77
2021/12/26 11:21:13;;;;;;;10.53;7.80;;;;;;;-1.74;60.70;99510.61;1736858;81;21086;-85
2021/12/26 11:23:43;;;;;;;12.63;6.53;;;;;;;-1.74;60.53;99506.66;1749248;82;20971;-80
2021/12/26 11:26:15;;;;;;;12.10;7.27;;;;;;;-1.72;60.32;99507.78;1749064;81;22283;-76
2021/12/26 11:28:46;;;;;;;13.67;7.50;;;;;;;-1.64;60.58;99515.64;1748967;82;21118;-83
2021/12/26 11:31:22;;;;;;;14.40;8.17;;;;;;;-1.63;60.17;99513.34;1746973;82;21545;-81
2021/12/26 11:33:56;;;;;;;17.03;8.10;;;;;;;-1.57;60.11;99501.57;1743307;82;21069;-81
2021/12/26 11:36:24;;;;;;;12.63;7.10;;;;;;;-1.49;60.13;99513.89;1749387;82;21506;-80
2021/12/26 11:38:53;;;;;;;15.27;8.33;;;;;;;-1.42;59.56;99516.13;1748665;81;21074;-80
2021/12/26 11:41:48;;;;;;;16.67;8.63;;;;;;;-1.42;59.48;99507.72;1773833;80;21047;-82
2021/12/26 11:45:08;;;;;;;11.60;7.90;;;;;;;-1.35;58.84;99515.25;1738097;82;21027;-81
2021/12/26 11:48:26;;;;;;;13.53;7.40;;;;;;;-1.35;57.58;99523.66;1679615;82;21553;-86